createdAt,value
2018-08-12T00:00:55.850Z,1000.21
2018-08-12T00:01:55.887Z,1000.15
2018-08-12T00:02:55.924Z,1000.18
2018-08-12T00:03:55.964Z,1000.19
2018-08-12T00:04:55.999Z,1000.17
2018-08-12T00:05:56.038Z,1000.16
2018-08-12T00:06:56.079Z,1000.14
2018-08-12T00:07:56.117Z,1000.15
2018-08-12T00:08:56.156Z,1000.16
2018-08-12T00:09:56.196Z,1000.18
2018-08-12T00:10:56.227Z,1000.14
2018-08-12T00:11:56.264Z,1000.15
2018-08-12T00:12:56.301Z,1000.14
2018-08-12T00:13:56.340Z,1000.11
2018-08-12T00:14:56.378Z,1000.11
2018-08-12T00:15:56.418Z,1000.11
2018-08-12T00:16:56.459Z,1000.11
2018-08-12T00:17:56.492Z,1000.09
2018-08-12T00:18:56.534Z,1000.09
2018-08-12T00:19:56.571Z,1000.11
2018-08-12T00:20:56.661Z,1000.03
2018-08-12T00:21:56.647Z,1000.07
2018-08-12T00:22:56.688Z,1000.07
2018-08-12T00:23:56.722Z,1000.09
2018-08-12T00:24:56.757Z,1000.05
2018-08-12T00:25:56.800Z,1000.13
2018-08-12T00:26:56.834Z,1000.05
2018-08-12T00:27:56.879Z,1000.06
2018-08-12T00:28:56.909Z,1000.02
2018-08-12T00:29:56.947Z,1000.05
2018-08-12T00:30:56.983Z,1000.06
2018-08-12T00:31:57.024Z,1000.03
2018-08-12T00:32:57.063Z,1000.03
2018-08-12T00:33:57.103Z,1000.07
2018-08-12T00:34:57.369Z,1000.05
2018-08-12T00:35:57.175Z,1000.04
2018-08-12T00:36:57.209Z,999.99
2018-08-12T00:37:57.247Z,1000.03
2018-08-12T00:38:57.285Z,1000.03
2018-08-12T00:39:57.333Z,1000.03
2018-08-12T00:40:57.361Z,1000.00
2018-08-12T00:41:57.398Z,1000.04
2018-08-12T00:42:57.435Z,1000.01
2018-08-12T00:43:57.481Z,1000.04
2018-08-12T00:44:57.511Z,999.97
2018-08-12T00:45:57.550Z,1000.04
2018-08-12T00:46:57.587Z,1000.05
2018-08-12T00:47:57.625Z,1000.04
2018-08-12T00:48:57.665Z,1000.00
2018-08-12T00:49:57.700Z,1000.01
2018-08-12T00:50:57.737Z,1000.05
2018-08-12T00:51:57.776Z,1000.00
2018-08-12T00:52:57.817Z,1000.03
2018-08-12T00:53:57.853Z,1000.03
2018-08-12T00:54:57.888Z,1000.01
2018-08-12T00:55:57.928Z,1000.00
2018-08-12T00:56:57.963Z,999.99
2018-08-12T00:57:58.003Z,1000.00
2018-08-12T00:58:58.052Z,1000.02
2018-08-12T00:59:58.077Z,1000.02
2018-08-12T01:00:58.116Z,999.96
2018-08-12T01:01:58.151Z,999.94
2018-08-12T01:02:58.192Z,999.94
2018-08-12T01:03:58.228Z,999.92
2018-08-12T01:04:58.266Z,999.90
2018-08-12T01:05:58.303Z,999.92
2018-08-12T01:06:58.342Z,999.90
2018-08-12T01:07:58.379Z,999.92
2018-08-12T01:08:58.415Z,999.90
2018-08-12T01:09:58.455Z,999.94
2018-08-12T01:10:58.492Z,999.89
2018-08-12T01:11:58.529Z,999.92
2018-08-12T01:12:58.573Z,999.90
2018-08-12T01:13:58.605Z,999.87
2018-08-12T01:14:58.641Z,999.89
2018-08-12T01:15:58.679Z,999.91
2018-08-12T01:16:58.716Z,999.89
2018-08-12T01:17:58.753Z,999.91
2018-08-12T01:18:58.794Z,999.93
2018-08-12T01:19:58.833Z,999.88
2018-08-12T01:20:58.870Z,999.90
2018-08-12T01:21:58.904Z,999.89
2018-08-12T01:22:58.941Z,999.89
2018-08-12T01:23:58.982Z,999.92
2018-08-12T01:24:59.017Z,999.90
2018-08-12T01:25:59.055Z,999.89
2018-08-12T01:26:59.101Z,999.87
2018-08-12T01:27:59.132Z,999.85
2018-08-12T01:28:59.168Z,999.85
2018-08-12T01:29:59.203Z,999.82
2018-08-12T01:30:59.251Z,999.81
2018-08-12T01:31:59.279Z,999.81
2018-08-12T01:32:59.324Z,999.78
2018-08-12T01:33:59.357Z,999.81
2018-08-12T01:34:59.402Z,999.81
2018-08-12T01:35:59.504Z,999.82
2018-08-12T01:36:59.466Z,999.81
2018-08-12T01:37:59.504Z,999.79
2018-08-12T01:38:59.548Z,999.79
2018-08-12T01:39:59.578Z,999.78
2018-08-12T01:40:59.656Z,999.77
2018-08-12T01:41:59.657Z,999.77
2018-08-12T01:42:59.696Z,999.75
2018-08-12T01:43:59.727Z,999.76
2018-08-12T01:44:59.768Z,999.75
2018-08-12T01:45:59.812Z,999.71
2018-08-12T01:46:59.839Z,999.73
2018-08-12T01:47:59.879Z,999.76
2018-08-12T01:48:59.914Z,999.73
2018-08-12T01:49:59.953Z,999.70
2018-08-12T01:50:59.989Z,999.71
2018-08-12T01:52:00.027Z,999.70
2018-08-12T01:53:00.072Z,999.68
2018-08-12T01:54:00.111Z,999.70
2018-08-12T01:55:00.139Z,999.62
2018-08-12T01:56:00.176Z,999.66
2018-08-12T01:57:00.218Z,999.63
2018-08-12T01:58:00.251Z,999.64
2018-08-12T01:59:00.289Z,999.65
2018-08-12T02:00:00.326Z,999.62
2018-08-12T02:01:00.363Z,999.62
2018-08-12T02:02:00.401Z,999.65
2018-08-12T02:03:00.446Z,999.65
2018-08-12T02:04:00.475Z,999.67
2018-08-12T02:05:00.514Z,999.68
2018-08-12T02:06:00.552Z,999.66
2018-08-12T02:07:00.588Z,999.64
2018-08-12T02:08:00.623Z,999.68
2018-08-12T02:09:00.663Z,999.71
2018-08-12T02:10:00.699Z,999.68
2018-08-12T02:11:00.736Z,999.66
2018-08-12T02:12:00.773Z,999.65
2018-08-12T02:13:00.811Z,999.67
2018-08-12T02:14:00.848Z,999.65
2018-08-12T02:15:00.887Z,999.59
2018-08-12T02:16:00.928Z,999.63
2018-08-12T02:17:00.959Z,999.59
2018-08-12T02:18:00.996Z,999.59
2018-08-12T02:19:01.033Z,999.62
2018-08-12T02:20:01.121Z,999.56
2018-08-12T02:21:01.110Z,999.55
2018-08-12T02:22:01.147Z,999.54
2018-08-12T02:23:01.183Z,999.55
2018-08-12T02:24:01.219Z,999.54
2018-08-12T02:25:01.257Z,999.51
2018-08-12T02:26:01.295Z,999.50
2018-08-12T02:27:01.339Z,999.49
2018-08-12T02:28:01.368Z,999.50
2018-08-12T02:29:01.407Z,999.49
2018-08-12T02:30:01.444Z,999.45
2018-08-12T02:31:01.580Z,999.49
2018-08-12T02:32:01.519Z,999.46
2018-08-12T02:33:01.555Z,999.50
2018-08-12T02:34:01.593Z,999.46
2018-08-12T02:35:01.633Z,999.48
2018-08-12T02:36:01.673Z,999.46
2018-08-12T02:37:01.704Z,999.42
2018-08-12T02:38:01.742Z,999.42
2018-08-12T02:39:01.856Z,999.42
2018-08-12T02:40:01.826Z,999.44
2018-08-12T02:41:01.869Z,999.45
2018-08-12T02:42:01.891Z,999.48
2018-08-12T02:43:01.928Z,999.47
2018-08-12T02:44:01.972Z,999.52
2018-08-12T02:45:02.003Z,999.46
2018-08-12T02:46:02.038Z,999.50
2018-08-12T02:47:02.076Z,999.46
2018-08-12T02:48:02.112Z,999.46
2018-08-12T02:49:02.150Z,999.42
2018-08-12T02:50:02.191Z,999.40
2018-08-12T02:51:02.225Z,999.41
2018-08-12T02:52:02.261Z,999.43
2018-08-12T02:53:02.302Z,999.39
2018-08-12T02:54:02.335Z,999.39
2018-08-12T02:55:02.373Z,999.40
2018-08-12T02:56:02.408Z,999.36
2018-08-12T02:57:02.446Z,999.36
2018-08-12T02:58:02.484Z,999.32
2018-08-12T02:59:02.522Z,999.35
2018-08-12T03:00:02.557Z,999.31
2018-08-12T03:01:02.597Z,999.28
2018-08-12T03:02:02.631Z,999.26
2018-08-12T03:03:02.668Z,999.25
2018-08-12T03:04:02.706Z,999.25
2018-08-12T03:05:02.744Z,999.24
2018-08-12T03:06:02.780Z,999.27
2018-08-12T03:07:02.816Z,999.21
2018-08-12T03:08:02.854Z,999.26
2018-08-12T03:09:02.892Z,999.22
2018-08-12T03:10:02.928Z,999.21
2018-08-12T03:11:02.963Z,999.19
2018-08-12T03:12:03.002Z,999.18
2018-08-12T03:13:03.042Z,999.19
2018-08-12T03:14:03.075Z,999.19
2018-08-12T03:15:03.111Z,999.19
2018-08-12T03:16:03.149Z,999.16
2018-08-12T03:17:03.187Z,999.17
2018-08-12T03:18:03.221Z,999.17
2018-08-12T03:19:03.262Z,999.15
2018-08-12T03:20:03.303Z,999.17
2018-08-12T03:21:03.332Z,999.18
2018-08-12T03:22:03.369Z,999.12
2018-08-12T03:23:03.406Z,999.13
2018-08-12T03:24:03.443Z,999.15
2018-08-12T03:25:03.481Z,999.11
2018-08-12T03:26:03.516Z,999.11
2018-08-12T03:27:03.554Z,999.14
2018-08-12T03:28:03.590Z,999.10
2018-08-12T03:29:03.635Z,999.14
2018-08-12T03:30:03.701Z,999.09
2018-08-12T03:31:03.702Z,999.06
2018-08-12T03:32:03.738Z,999.03
2018-08-12T03:33:03.778Z,999.05
2018-08-12T03:34:03.812Z,999.03
2018-08-12T03:35:03.849Z,999.06
2018-08-12T03:36:03.885Z,999.05
2018-08-12T03:37:03.922Z,999.07
2018-08-12T03:38:03.959Z,999.03
2018-08-12T03:39:03.996Z,999.00
2018-08-12T03:40:04.034Z,999.02
2018-08-12T03:41:04.070Z,998.99
2018-08-12T03:42:04.109Z,998.99
2018-08-12T03:43:04.143Z,998.98
2018-08-12T03:44:04.185Z,998.98
2018-08-12T03:45:04.216Z,998.94
2018-08-12T03:46:04.255Z,998.93
2018-08-12T03:47:04.291Z,998.96
2018-08-12T03:48:04.327Z,998.96
2018-08-12T03:49:04.364Z,998.96
2018-08-12T03:50:04.402Z,998.95
2018-08-12T03:51:04.450Z,998.96
2018-08-12T03:52:04.475Z,998.99
2018-08-12T03:53:04.512Z,999.00
2018-08-12T03:54:04.548Z,998.97
2018-08-12T03:55:04.587Z,998.98
2018-08-12T03:56:04.622Z,998.98
2018-08-12T03:57:04.658Z,998.91
2018-08-12T03:58:04.695Z,998.89
2018-08-12T03:59:04.732Z,998.89
2018-08-12T04:00:04.767Z,998.87
2018-08-12T04:01:04.809Z,998.91
2018-08-12T04:02:04.845Z,998.91
2018-08-12T04:03:04.879Z,998.89
2018-08-12T04:04:04.917Z,998.94
2018-08-12T04:05:04.954Z,998.90
2018-08-12T04:06:04.989Z,998.88
2018-08-12T04:07:05.034Z,998.88
2018-08-12T04:08:05.063Z,998.86
2018-08-12T04:09:05.102Z,998.84
2018-08-12T04:10:05.138Z,998.85
2018-08-12T04:11:05.174Z,998.85
2018-08-12T04:12:05.211Z,998.78
2018-08-12T04:13:05.250Z,998.80
2018-08-12T04:14:05.284Z,998.81
2018-08-12T04:15:05.320Z,998.91
2018-08-12T04:16:05.363Z,998.86
2018-08-12T04:17:05.396Z,998.89
2018-08-12T04:18:05.431Z,998.90
2018-08-12T04:19:05.521Z,998.83
2018-08-12T04:20:05.534Z,998.82
2018-08-12T04:21:05.564Z,998.86
2018-08-12T04:22:05.578Z,998.84
2018-08-12T04:23:05.613Z,998.82
2018-08-12T04:24:05.651Z,998.85
2018-08-12T04:25:05.688Z,998.77
2018-08-12T04:26:05.725Z,998.80
2018-08-12T04:27:05.762Z,998.78
2018-08-12T04:28:05.797Z,998.80
2018-08-12T04:29:05.839Z,998.78
2018-08-12T04:30:05.873Z,998.78
2018-08-12T04:31:05.916Z,998.76
2018-08-12T04:32:05.945Z,998.76
2018-08-12T04:33:05.981Z,998.79
2018-08-12T04:34:06.022Z,998.80
2018-08-12T04:35:06.056Z,998.78
2018-08-12T04:36:06.093Z,998.80
2018-08-12T04:37:06.130Z,998.75
2018-08-12T04:38:06.166Z,998.71
2018-08-12T04:39:06.204Z,998.71
2018-08-12T04:40:06.241Z,998.67
2018-08-12T04:41:06.279Z,998.68
2018-08-12T04:42:06.315Z,998.70
2018-08-12T04:43:06.350Z,998.69
2018-08-12T04:44:06.389Z,998.67
2018-08-12T04:45:06.425Z,998.61
2018-08-12T04:46:06.574Z,998.63
2018-08-12T04:47:06.499Z,998.61
2018-08-12T04:48:06.534Z,998.63
2018-08-12T04:49:06.573Z,998.62
2018-08-12T04:50:06.609Z,998.62
2018-08-12T04:51:06.646Z,998.60
2018-08-12T04:52:06.681Z,998.61
2018-08-12T04:53:06.719Z,998.59
2018-08-12T04:54:06.756Z,998.59
2018-08-12T04:55:06.793Z,998.59
2018-08-12T04:56:06.829Z,998.58
2018-08-12T04:57:06.866Z,998.57
2018-08-12T04:58:06.906Z,998.56
2018-08-12T04:59:06.945Z,998.55
2018-08-12T05:00:06.978Z,998.53
2018-08-12T05:01:07.018Z,998.52
2018-08-12T05:02:07.051Z,998.50
2018-08-12T05:03:07.096Z,998.54
2018-08-12T05:04:07.127Z,998.52
2018-08-12T05:05:07.163Z,998.53
2018-08-12T05:06:07.202Z,998.51
2018-08-12T05:07:07.239Z,998.57
2018-08-12T05:08:07.274Z,998.55
2018-08-12T05:09:07.311Z,998.56
2018-08-12T05:10:07.349Z,998.58
2018-08-12T05:11:07.385Z,998.55
2018-08-12T05:12:07.422Z,998.55
2018-08-12T05:13:07.459Z,998.52
2018-08-12T05:14:07.497Z,998.51
2018-08-12T05:15:07.535Z,998.51
2018-08-12T05:16:07.570Z,998.53
2018-08-12T05:17:07.610Z,998.48
2018-08-12T05:18:07.646Z,998.50
2018-08-12T05:19:07.685Z,998.47
2018-08-12T05:20:07.727Z,998.48
2018-08-12T05:21:07.758Z,998.47
2018-08-12T05:22:07.797Z,998.47
2018-08-12T05:23:07.832Z,998.46
2018-08-12T05:24:07.870Z,998.49
2018-08-12T05:25:07.906Z,998.43
2018-08-12T05:26:07.944Z,998.45
2018-08-12T05:27:07.982Z,998.39
2018-08-12T05:28:08.018Z,998.40
2018-08-12T05:29:08.054Z,998.39
2018-08-12T05:30:08.093Z,998.38
2018-08-12T05:31:08.130Z,998.32
2018-08-12T05:32:08.168Z,998.35
2018-08-12T05:33:08.204Z,998.36
2018-08-12T05:34:08.241Z,998.33
2018-08-12T05:35:08.279Z,998.31
2018-08-12T05:36:08.326Z,998.30
2018-08-12T05:37:08.351Z,998.31
2018-08-12T05:38:08.398Z,998.29
2018-08-12T05:39:08.430Z,998.27
2018-08-12T05:40:08.464Z,998.23
2018-08-12T05:41:08.502Z,998.25
2018-08-12T05:42:08.539Z,998.28
2018-08-12T05:43:08.576Z,998.24
2018-08-12T05:44:08.614Z,998.25
2018-08-12T05:45:08.651Z,998.27
2018-08-12T05:46:08.694Z,998.25
2018-08-12T05:47:08.728Z,998.23
2018-08-12T05:48:08.762Z,998.21
2018-08-12T05:49:08.800Z,998.23
2018-08-12T05:50:08.844Z,998.17
2018-08-12T05:51:08.964Z,998.25
2018-08-12T05:52:08.913Z,998.22
2018-08-12T05:53:08.955Z,998.25
2018-08-12T05:54:08.987Z,998.22
2018-08-12T05:55:09.024Z,998.21
2018-08-12T05:56:09.069Z,998.23
2018-08-12T05:57:09.149Z,998.18
2018-08-12T05:58:09.137Z,998.18
2018-08-12T05:59:09.174Z,998.16
2018-08-12T06:00:09.213Z,998.16
2018-08-12T06:01:09.264Z,998.13
2018-08-12T06:02:09.286Z,998.16
2018-08-12T06:03:09.324Z,998.15
2018-08-12T06:04:09.364Z,998.13
2018-08-12T06:05:09.397Z,998.15
2018-08-12T06:06:09.462Z,998.19
2018-08-12T06:07:09.477Z,998.18
2018-08-12T06:08:09.526Z,998.16
2018-08-12T06:09:09.549Z,998.17
2018-08-12T06:10:09.589Z,998.17
2018-08-12T06:11:09.629Z,998.19
2018-08-12T06:12:09.660Z,998.20
2018-08-12T06:13:09.701Z,998.22
2018-08-12T06:14:09.738Z,998.19
2018-08-12T06:15:09.776Z,998.18
2018-08-12T06:16:09.812Z,998.18
2018-08-12T06:17:09.865Z,998.19
2018-08-12T06:18:09.893Z,998.14
2018-08-12T06:19:09.935Z,998.16
2018-08-12T06:20:09.967Z,998.18
2018-08-12T06:21:10.009Z,998.13
2018-08-12T06:22:10.041Z,998.16
2018-08-12T06:23:10.077Z,998.17
2018-08-12T06:24:10.116Z,998.15
2018-08-12T06:25:10.153Z,998.14
2018-08-12T06:26:10.199Z,998.14
2018-08-12T06:27:10.230Z,998.15
2018-08-12T06:28:10.269Z,998.12
2018-08-12T06:29:10.329Z,998.16
2018-08-12T06:30:10.345Z,998.17
2018-08-12T06:31:10.386Z,998.11
2018-08-12T06:32:10.426Z,998.11
2018-08-12T06:33:10.462Z,998.10
2018-08-12T06:34:10.509Z,998.06
2018-08-12T06:35:10.536Z,998.11
2018-08-12T06:36:10.574Z,998.06
2018-08-12T06:37:10.610Z,998.07
2018-08-12T06:38:10.649Z,998.05
2018-08-12T06:39:10.685Z,998.05
2018-08-12T06:40:10.723Z,998.05
2018-08-12T06:41:10.765Z,998.01
2018-08-12T06:42:10.814Z,998.01
2018-08-12T06:43:10.840Z,998.00
2018-08-12T06:44:10.878Z,997.99
2018-08-12T06:45:10.917Z,998.03
2018-08-12T06:46:10.963Z,998.00
2018-08-12T06:47:11.003Z,997.98
2018-08-12T06:48:11.036Z,998.05
2018-08-12T06:49:11.082Z,998.04
2018-08-12T06:50:11.116Z,997.97
2018-08-12T06:51:11.155Z,997.97
2018-08-12T06:52:11.210Z,997.97
2018-08-12T06:53:11.237Z,997.95
2018-08-12T06:54:11.265Z,997.96
2018-08-12T06:55:11.307Z,997.94
2018-08-12T06:56:11.351Z,997.93
2018-08-12T06:57:11.486Z,997.95
2018-08-12T06:58:11.425Z,997.97
2018-08-12T06:59:11.457Z,997.92
2018-08-12T07:00:11.502Z,997.97
2018-08-12T07:01:11.537Z,997.98
2018-08-12T07:02:11.576Z,997.94
2018-08-12T07:03:11.615Z,997.96
2018-08-12T07:04:11.652Z,997.94
2018-08-12T07:05:11.690Z,997.93
2018-08-12T07:06:11.730Z,997.91
2018-08-12T07:07:11.772Z,997.90
2018-08-12T07:08:11.893Z,997.91
2018-08-12T07:09:11.859Z,997.89
2018-08-12T07:10:11.891Z,997.91
2018-08-12T07:11:11.926Z,997.90
2018-08-12T07:12:11.966Z,997.92
2018-08-12T07:13:12.004Z,997.90
2018-08-12T07:14:12.093Z,997.84
2018-08-12T07:15:12.088Z,997.82
2018-08-12T07:16:12.127Z,997.83
2018-08-12T07:17:12.164Z,997.84
2018-08-12T07:18:12.213Z,997.82
2018-08-12T07:19:12.238Z,997.81
2018-08-12T07:20:12.282Z,997.86
2018-08-12T07:21:12.326Z,997.80
2018-08-12T07:22:12.359Z,997.82
2018-08-12T07:23:12.399Z,997.77
2018-08-12T07:24:12.440Z,997.81
2018-08-12T07:25:12.476Z,997.77
2018-08-12T07:26:12.526Z,997.78
2018-08-12T07:27:12.557Z,997.81
2018-08-12T07:28:12.597Z,997.78
2018-08-12T07:29:12.642Z,997.79
2018-08-12T07:30:12.726Z,997.77
2018-08-12T07:31:12.718Z,997.81
2018-08-12T07:32:12.762Z,997.75
2018-08-12T07:33:12.805Z,997.77
2018-08-12T07:34:12.835Z,997.73
2018-08-12T07:35:12.881Z,997.73
2018-08-12T07:36:12.919Z,997.70
2018-08-12T07:37:12.954Z,997.67
2018-08-12T07:38:12.993Z,997.64
2018-08-12T07:39:13.038Z,997.64
2018-08-12T07:40:13.083Z,997.65
2018-08-12T07:41:13.114Z,997.64
2018-08-12T07:42:13.315Z,997.66
2018-08-12T07:43:13.200Z,997.64
2018-08-12T07:44:13.239Z,997.65
2018-08-12T07:45:13.276Z,997.62
2018-08-12T07:46:13.317Z,997.59
2018-08-12T07:47:13.368Z,997.56
2018-08-12T07:48:13.399Z,997.58
2018-08-12T07:49:13.455Z,997.57
2018-08-12T07:50:13.497Z,997.59
2018-08-12T07:51:13.537Z,997.55
2018-08-12T07:52:13.564Z,997.55
2018-08-12T07:53:13.601Z,997.50
2018-08-12T07:54:13.641Z,997.49
2018-08-12T07:55:13.682Z,997.45
2018-08-12T07:56:13.724Z,997.47
2018-08-12T07:57:13.765Z,997.46
2018-08-12T07:58:13.803Z,997.43
2018-08-12T07:59:13.847Z,997.43
2018-08-12T08:00:13.886Z,997.40
2018-08-12T08:01:13.930Z,997.38
2018-08-12T08:02:13.967Z,997.40
2018-08-12T08:03:14.008Z,997.39
2018-08-12T08:04:14.052Z,997.40
2018-08-12T08:05:14.090Z,997.35
2018-08-12T08:06:14.152Z,997.36
2018-08-12T08:07:14.171Z,997.38
2018-08-12T08:08:14.261Z,997.36
2018-08-12T08:09:14.261Z,997.35
2018-08-12T08:10:14.293Z,997.30
2018-08-12T08:11:14.330Z,997.31
2018-08-12T08:12:14.381Z,997.29
2018-08-12T08:13:14.416Z,997.29
2018-08-12T08:14:14.459Z,997.28
2018-08-12T08:15:14.495Z,997.25
2018-08-12T08:16:14.542Z,997.26
2018-08-12T08:17:14.594Z,997.24
2018-08-12T08:18:14.620Z,997.26
2018-08-12T08:19:14.674Z,997.25
2018-08-12T08:20:14.852Z,997.25
2018-08-12T08:21:14.742Z,997.29
2018-08-12T08:22:14.784Z,997.21
2018-08-12T08:23:14.821Z,997.22
2018-08-12T08:24:14.863Z,997.21
2018-08-12T08:25:14.923Z,997.22
2018-08-12T08:26:14.947Z,997.23
2018-08-12T08:27:14.987Z,997.23
2018-08-12T08:28:15.033Z,997.22
2018-08-12T08:29:15.075Z,997.21
2018-08-12T08:30:15.117Z,997.23
2018-08-12T08:31:15.194Z,997.18
2018-08-12T08:32:15.279Z,997.20
2018-08-12T08:33:15.251Z,997.20
2018-08-12T08:34:15.273Z,997.14
2018-08-12T08:35:15.314Z,997.12
2018-08-12T08:36:15.361Z,997.15
2018-08-12T08:37:15.396Z,997.12
2018-08-12T08:38:15.457Z,997.09
2018-08-12T08:39:15.478Z,997.07
2018-08-12T08:40:15.521Z,997.05
2018-08-12T08:41:15.561Z,997.08
2018-08-12T08:42:15.601Z,997.04
2018-08-12T08:43:15.645Z,997.04
2018-08-12T08:44:15.684Z,997.07
2018-08-12T08:45:15.725Z,997.05
2018-08-12T08:46:15.768Z,997.07
2018-08-12T08:47:15.808Z,997.06
2018-08-12T08:48:15.853Z,997.09
2018-08-12T08:49:15.898Z,997.06
2018-08-12T08:50:15.933Z,997.03
2018-08-12T08:51:15.975Z,997.03
2018-08-12T08:52:16.015Z,997.04
2018-08-12T08:53:16.059Z,996.98
2018-08-12T08:54:16.103Z,997.00
2018-08-12T08:55:16.144Z,996.96
2018-08-12T08:56:16.182Z,996.94
2018-08-12T08:57:16.221Z,996.95
2018-08-12T08:58:16.268Z,996.90
2018-08-12T08:59:16.306Z,996.93
2018-08-12T09:00:16.351Z,996.88
2018-08-12T09:01:16.441Z,996.90
2018-08-12T09:02:16.443Z,996.87
2018-08-12T09:03:16.469Z,996.90
2018-08-12T09:04:16.512Z,996.91
2018-08-12T09:05:16.566Z,996.94
2018-08-12T09:06:16.604Z,996.87
2018-08-12T09:07:16.636Z,996.88
2018-08-12T09:08:16.745Z,996.86
2018-08-12T09:09:17.062Z,996.81
2018-08-12T09:10:16.766Z,996.87
2018-08-12T09:11:16.819Z,996.86
2018-08-12T09:12:16.863Z,996.84
2018-08-12T09:13:16.888Z,996.88
2018-08-12T09:14:16.928Z,996.89
2018-08-12T09:15:16.969Z,996.87
2018-08-12T09:16:17.011Z,996.94
2018-08-12T09:17:17.208Z,996.86
2018-08-12T09:18:17.195Z,996.86
2018-08-12T09:19:17.137Z,996.84
2018-08-12T09:20:17.180Z,996.86
2018-08-12T09:21:17.225Z,996.89
2018-08-12T09:22:17.261Z,996.88
2018-08-12T09:23:17.302Z,996.83
2018-08-12T09:24:17.354Z,996.83
2018-08-12T09:25:17.400Z,996.78
2018-08-12T09:26:17.437Z,996.76
2018-08-12T09:27:17.474Z,996.79
2018-08-12T09:28:17.511Z,996.76
2018-08-12T09:29:17.554Z,996.67
2018-08-12T09:30:17.598Z,996.69
2018-08-12T09:31:17.641Z,996.71
2018-08-12T09:32:17.688Z,996.70
2018-08-12T09:33:17.730Z,996.65
2018-08-12T09:34:17.782Z,996.68
2018-08-12T09:35:17.815Z,996.66
2018-08-12T09:36:17.859Z,996.61
2018-08-12T09:37:17.893Z,996.59
2018-08-12T09:38:17.934Z,996.57
2018-08-12T09:39:17.973Z,996.59
2018-08-12T09:40:18.020Z,996.57
2018-08-12T09:41:18.059Z,996.56
2018-08-12T09:42:18.105Z,996.58
2018-08-12T09:43:18.144Z,996.58
2018-08-12T09:44:18.182Z,996.54
2018-08-12T09:45:18.227Z,996.50
2018-08-12T09:46:18.269Z,996.51
2018-08-12T09:47:18.312Z,996.51
2018-08-12T09:48:18.353Z,996.46
2018-08-12T09:49:18.398Z,996.50
2018-08-12T09:50:18.460Z,996.53
2018-08-12T09:51:18.528Z,996.50
2018-08-12T09:52:18.527Z,996.48
2018-08-12T09:53:18.566Z,996.46
2018-08-12T09:54:18.611Z,996.45
2018-08-12T09:55:18.655Z,996.43
2018-08-12T09:56:18.694Z,996.49
2018-08-12T09:57:18.734Z,996.49
2018-08-12T09:58:18.798Z,996.48
2018-08-12T09:59:18.825Z,996.47
2018-08-12T10:00:18.923Z,996.45
2018-08-12T10:01:18.911Z,996.42
2018-08-12T10:02:18.948Z,996.39
2018-08-12T10:03:18.989Z,996.32
2018-08-12T10:04:19.033Z,996.34
2018-08-12T10:05:19.072Z,996.29
2018-08-12T10:06:19.120Z,996.30
2018-08-12T10:07:19.211Z,996.30
2018-08-12T10:08:19.201Z,996.25
2018-08-12T10:09:19.241Z,996.26
2018-08-12T10:10:19.285Z,996.27
2018-08-12T10:11:19.351Z,996.21
2018-08-12T10:12:19.369Z,996.17
2018-08-12T10:13:19.425Z,996.24
2018-08-12T10:14:19.453Z,996.14
2018-08-12T10:15:19.500Z,996.19
2018-08-12T10:16:19.549Z,996.19
2018-08-12T10:17:19.582Z,996.15
2018-08-12T10:18:19.626Z,996.15
2018-08-12T10:19:19.668Z,996.12
2018-08-12T10:20:19.711Z,996.09
2018-08-12T10:21:19.753Z,996.08
2018-08-12T10:22:19.798Z,996.08
2018-08-12T10:23:19.840Z,996.09
2018-08-12T10:24:19.884Z,996.05
2018-08-12T10:25:19.924Z,996.03
2018-08-12T10:26:19.968Z,996.07
2018-08-12T10:27:20.009Z,996.02
2018-08-12T10:28:20.051Z,995.98
2018-08-12T10:29:20.175Z,995.97
2018-08-12T10:30:20.137Z,995.97
2018-08-12T10:31:20.184Z,995.95
2018-08-12T10:32:20.222Z,995.92
2018-08-12T10:33:20.268Z,995.91
2018-08-12T10:34:20.308Z,995.88
2018-08-12T10:35:20.356Z,995.89
2018-08-12T10:36:20.394Z,995.87
2018-08-12T10:37:20.442Z,995.90
2018-08-12T10:38:20.479Z,995.88
2018-08-12T10:39:20.520Z,995.87
2018-08-12T10:40:20.566Z,995.88
2018-08-12T10:41:20.615Z,995.85
2018-08-12T10:42:20.658Z,995.86
2018-08-12T10:43:20.694Z,995.82
2018-08-12T10:44:20.744Z,995.82
2018-08-12T10:45:20.780Z,995.81
2018-08-12T10:46:20.823Z,995.78
2018-08-12T10:47:20.867Z,995.79
2018-08-12T10:48:20.924Z,995.73
2018-08-12T10:49:20.951Z,995.72
2018-08-12T10:50:21.003Z,995.73
2018-08-12T10:51:21.046Z,995.72
2018-08-12T10:52:21.229Z,995.68
2018-08-12T10:53:21.125Z,995.69
2018-08-12T10:54:21.172Z,995.68
2018-08-12T10:55:21.215Z,995.70
2018-08-12T10:56:21.252Z,995.68
2018-08-12T10:57:21.295Z,995.68
2018-08-12T10:58:21.339Z,995.67
2018-08-12T10:59:21.389Z,995.61
2018-08-12T11:00:21.423Z,995.58
2018-08-12T11:01:21.468Z,995.56
2018-08-12T11:02:21.519Z,995.54
2018-08-12T11:03:21.556Z,995.53
2018-08-12T11:04:21.616Z,995.45
2018-08-12T11:05:21.679Z,995.43
2018-08-12T11:06:21.696Z,995.40
2018-08-12T11:07:21.756Z,995.46
2018-08-12T11:08:21.847Z,995.41
2018-08-12T11:09:21.817Z,995.36
2018-08-12T11:10:21.857Z,995.38
2018-08-12T11:11:21.920Z,995.34
2018-08-12T11:12:22.011Z,995.32
2018-08-12T11:13:21.993Z,995.35
2018-08-12T11:14:22.027Z,995.37
2018-08-12T11:15:22.074Z,995.38
2018-08-12T11:16:22.120Z,995.37
2018-08-12T11:17:22.175Z,995.39
2018-08-12T11:18:22.204Z,995.33
2018-08-12T11:19:22.257Z,995.31
2018-08-12T11:20:22.299Z,995.30
2018-08-12T11:21:22.334Z,995.34
2018-08-12T11:22:22.373Z,995.34
2018-08-12T11:23:22.419Z,995.35
2018-08-12T11:24:22.460Z,995.32
2018-08-12T11:25:22.508Z,995.33
2018-08-12T11:26:22.549Z,995.31
2018-08-12T11:27:22.590Z,995.30
2018-08-12T11:28:23.092Z,995.29
2018-08-12T11:29:22.685Z,995.22
2018-08-12T11:30:22.732Z,995.18
2018-08-12T11:31:22.769Z,995.19
2018-08-12T11:32:22.819Z,995.20
2018-08-12T11:33:22.865Z,995.17
2018-08-12T11:34:22.897Z,995.17
2018-08-12T11:35:22.940Z,995.17
2018-08-12T11:36:22.985Z,995.15
2018-08-12T11:37:23.342Z,995.18
2018-08-12T11:38:23.069Z,995.14
2018-08-12T11:39:23.124Z,995.12
2018-08-12T11:40:23.156Z,995.10
2018-08-12T11:41:23.203Z,995.08
2018-08-12T11:42:23.248Z,995.10
2018-08-12T11:43:23.290Z,995.08
2018-08-12T11:44:23.334Z,995.01
2018-08-12T11:45:23.382Z,995.01
2018-08-12T11:46:23.437Z,994.98
2018-08-12T11:47:23.485Z,994.98
2018-08-12T11:48:23.515Z,994.99
2018-08-12T11:49:25.088Z,994.99
2018-08-12T11:50:23.596Z,994.98
2018-08-12T11:51:23.639Z,994.89
2018-08-12T11:52:23.681Z,994.89
2018-08-12T11:53:23.735Z,994.80
2018-08-12T11:54:23.768Z,994.82
2018-08-12T11:55:23.811Z,994.85
2018-08-12T11:56:23.857Z,994.83
2018-08-12T11:57:23.948Z,994.75
2018-08-12T11:58:23.943Z,994.80
2018-08-12T11:59:23.989Z,994.85
2018-08-12T12:00:24.030Z,994.82
2018-08-12T12:01:24.074Z,994.78
2018-08-12T12:02:24.122Z,994.84
2018-08-12T12:03:24.172Z,994.79
2018-08-12T12:04:24.358Z,994.72
2018-08-12T12:05:24.257Z,994.75
2018-08-12T12:06:24.298Z,994.72
2018-08-12T12:07:24.336Z,994.69
2018-08-12T12:08:24.394Z,994.69
2018-08-12T12:09:24.433Z,994.66
2018-08-12T12:10:24.474Z,994.65
2018-08-12T12:11:24.514Z,994.67
2018-08-12T12:12:24.554Z,994.65
2018-08-12T12:13:24.604Z,994.67
2018-08-12T12:14:24.646Z,994.66
2018-08-12T12:15:24.687Z,994.64
2018-08-12T12:16:24.734Z,994.61
2018-08-12T12:17:24.774Z,994.63
2018-08-12T12:18:24.824Z,994.61
2018-08-12T12:19:24.862Z,994.58
2018-08-12T12:20:24.935Z,994.55
2018-08-12T12:21:24.951Z,994.56
2018-08-12T12:22:24.995Z,994.56
2018-08-12T12:23:25.059Z,994.53
2018-08-12T12:24:25.088Z,994.57
2018-08-12T12:25:25.135Z,994.48
2018-08-12T12:26:25.172Z,994.43
2018-08-12T12:27:25.233Z,994.47